Time;durP1;ratioP1;P1;durP2;ratioP2;P2;SDS_P1;SDS_P2;PMS_P1;PMS_P2;Temp;Humidity;BMP_temperature;BMP_pressure;BME280_temperature;BME280_humidity;BME280_pressure;Samples;Min_cycle;Max_cycle;Signal;HPM_P1;HPM_P2
2023/10/18 00:01:00;;;;;;;3.60;2.20;;;;;;;0.71;82.92;95925.20;106767;1276;24340;-85
2023/10/18 00:03:41;;;;;;;3.60;2.20;;;;;;;0.66;82.96;95930.11;106651;1276;25457;-85
2023/10/18 00:06:15;;;;;;;3.50;2.50;;;;;;;0.62;82.51;95927.73;106727;1276;22528;-85
2023/10/18 00:08:45;;;;;;;4.00;1.90;;;;;;;0.66;82.52;95927.15;106526;1276;23090;-85
2023/10/18 00:11:15;;;;;;;15.40;6.50;;;;;;;0.58;82.17;95927.46;106730;1276;24968;-85
2023/10/18 00:13:49;;;;;;;22.60;9.00;;;;;;;0.47;81.87;95928.38;106766;1276;22531;-85
2023/10/18 00:16:17;;;;;;;10.40;4.80;;;;;;;0.39;83.04;95930.97;106674;1276;24217;-85
2023/10/18 00:18:45;;;;;;;4.30;2.60;;;;;;;0.35;82.86;95934.16;106788;1276;23975;-84
2023/10/18 00:21:14;;;;;;;8.00;2.80;;;;;;;0.35;82.93;95927.59;106859;1254;22553;-85
2023/10/18 00:23:44;;;;;;;13.20;6.10;;;;;;;0.31;82.84;95930.42;106698;1276;22526;-85
2023/10/18 00:26:12;;;;;;;7.20;3.90;;;;;;;0.27;82.62;95933.23;106772;1276;22540;-85
2023/10/18 00:28:41;;;;;;;5.40;2.80;;;;;;;0.23;83.06;95930.89;106643;1276;22537;-84
2023/10/18 00:31:18;;;;;;;2.90;1.90;;;;;;;0.23;83.41;95928.28;106630;1276;22540;-85
2023/10/18 00:33:47;;;;;;;4.80;2.60;;;;;;;0.18;83.36;95925.25;106712;1261;24380;-85
2023/10/18 00:36:19;;;;;;;20.90;8.00;;;;;;;0.05;82.85;95922.81;106697;1276;23919;-84
2023/10/18 00:38:47;;;;;;;6.30;2.70;;;;;;;0.05;83.10;95918.64;106697;1276;24201;-85
2023/10/18 00:41:21;;;;;;;5.80;2.60;;;;;;;0.10;83.90;95920.35;106706;1276;22530;-85
2023/10/18 00:43:52;;;;;;;12.70;5.60;;;;;;;0.14;83.55;95915.45;106653;1276;24457;-85
2023/10/18 00:46:22;;;;;;;7.20;3.50;;;;;;;0.12;83.00;95920.06;107054;1276;22526;-84
2023/10/18 00:48:51;;;;;;;5.40;3.70;;;;;;;0.10;83.08;95916.50;106958;1276;25343;-84
2023/10/18 00:51:19;;;;;;;6.60;3.20;;;;;;;0.13;83.22;95915.06;106907;1276;24465;-84
2023/10/18 00:53:50;;;;;;;4.40;2.50;;;;;;;0.17;83.71;95914.13;106891;1276;22576;-84
2023/10/18 00:56:20;;;;;;;4.70;1.90;;;;;;;0.20;83.55;95911.80;106966;1276;23918;-84
2023/10/18 00:58:48;;;;;;;3.20;2.20;;;;;;;0.28;83.34;95904.38;106655;1276;22536;-84
2023/10/18 01:01:19;;;;;;;2.20;1.60;;;;;;;0.31;83.23;95910.50;106691;1276;25409;-84
2023/10/18 01:03:49;;;;;;;4.50;2.00;;;;;;;0.26;83.40;95913.83;106663;1276;24715;-84
2023/10/18 01:06:26;;;;;;;4.30;2.80;;;;;;;0.25;83.34;95917.29;106662;1276;22530;-84
2023/10/18 01:08:58;;;;;;;4.80;2.90;;;;;;;0.26;82.18;95916.79;106696;1276;25220;-84
2023/10/18 01:11:28;;;;;;;17.30;7.00;;;;;;;0.19;81.81;95912.27;106610;1276;22920;-84
2023/10/18 01:14:00;;;;;;;16.60;6.00;;;;;;;0.11;81.93;95912.77;106630;1257;22530;-83
2023/10/18 01:16:35;;;;;;;3.30;1.90;;;;;;;0.09;81.89;95906.48;106731;1276;22527;-84
2023/10/18 01:19:08;;;;;;;3.50;1.60;;;;;;;0.15;82.41;95906.29;106999;1270;22530;-83
2023/10/18 01:21:37;;;;;;;1.80;1.40;;;;;;;0.17;82.90;95910.31;106700;1276;25252;-84
2023/10/18 01:24:13;;;;;;;3.60;1.90;;;;;;;0.17;82.87;95908.77;106734;1276;24682;-83
2023/10/18 01:26:42;;;;;;;8.20;3.70;;;;;;;0.21;83.39;95908.68;106711;1276;25395;-83
2023/10/18 01:29:11;;;;;;;5.80;3.00;;;;;;;0.22;82.65;95908.55;106700;1276;23003;-83
2023/10/18 01:31:45;;;;;;;3.00;2.10;;;;;;;0.24;82.99;95903.73;106675;1276;22655;-83
2023/10/18 01:34:14;;;;;;;4.10;2.20;;;;;;;0.24;82.69;95894.75;106597;1276;22531;-83
2023/10/18 01:36:43;;;;;;;3.40;2.10;;;;;;;0.18;82.67;95890.29;106775;1276;25315;-83
2023/10/18 01:39:18;;;;;;;10.60;4.70;;;;;;;0.13;82.91;95890.85;106692;1276;24535;-83
2023/10/18 01:41:49;;;;;;;15.10;6.00;;;;;;;0.05;82.81;95887.17;106714;1276;25405;-83
2023/10/18 01:44:33;;;;;;;8.70;4.60;;;;;;;0.05;82.86;95889.40;106694;1276;25294;-83
2023/10/18 01:47:06;;;;;;;8.30;3.30;;;;;;;-0.06;82.42;95887.90;106709;1276;25278;-83
2023/10/18 01:49:46;;;;;;;6.50;3.70;;;;;;;-0.19;82.96;95897.77;106677;1276;22970;-83
2023/10/18 01:52:17;;;;;;;5.10;3.00;;;;;;;-0.18;83.30;95902.45;106630;1276;25316;-83
2023/10/18 01:54:48;;;;;;;5.40;3.00;;;;;;;-0.22;83.67;95898.20;106689;1276;22535;-84
2023/10/18 01:57:17;;;;;;;55.90;19.80;;;;;;;-0.30;83.16;95894.88;106788;1276;23181;-83
2023/10/18 01:59:50;;;;;;;39.60;16.70;;;;;;;-0.38;82.97;95903.27;106668;1276;24503;-83
2023/10/18 02:02:19;;;;;;;;;;;;;;;-0.44;83.99;95911.74;106700;1276;23864;-84
2023/10/18 02:04:49;;;;;;;22.40;8.70;;;;;;;-0.53;84.26;95916.85;106667;1276;22641;-84
2023/10/18 02:07:21;;;;;;;10.40;5.50;;;;;;;-0.54;84.21;95917.86;106694;1276;25303;-84
2023/10/18 02:09:57;;;;;;;8.80;4.50;;;;;;;-0.58;84.11;95912.55;106720;1276;24227;-83
2023/10/18 02:12:27;;;;;;;29.30;12.00;;;;;;;-0.63;83.91;95904.30;106930;1276;24364;-83
2023/10/18 02:14:56;;;;;;;32.90;13.20;;;;;;;-0.71;84.32;95910.45;106711;1276;23827;-83
2023/10/18 02:17:24;;;;;;;18.90;9.60;;;;;;;-0.69;84.78;95914.67;106658;1276;22530;-84
2023/10/18 02:19:54;;;;;;;13.40;6.80;;;;;;;-0.63;84.74;95918.82;106744;1276;22663;-83
2023/10/18 02:22:22;;;;;;;3.40;2.50;;;;;;;-0.56;84.86;95916.79;106644;1276;22645;-84
2023/10/18 02:24:50;;;;;;;8.60;4.90;;;;;;;-0.44;85.05;95917.78;106640;1276;25243;-84
2023/10/18 02:27:19;;;;;;;10.60;5.50;;;;;;;-0.44;84.26;95914.69;106619;1276;22581;-83
2023/10/18 02:29:51;;;;;;;47.10;17.40;;;;;;;-0.51;83.49;95916.22;106728;1276;24311;-84
2023/10/18 02:32:23;;;;;;;44.50;16.10;;;;;;;-0.50;83.42;95918.17;106730;1276;22576;-83
2023/10/18 02:34:52;;;;;;;25.20;10.20;;;;;;;-0.44;83.57;95921.78;106685;1276;24119;-84
2023/10/18 02:37:24;;;;;;;11.10;5.60;;;;;;;-0.35;83.59;95922.56;106650;1276;22624;-84
2023/10/18 02:40:07;;;;;;;9.00;3.70;;;;;;;-0.27;83.68;95924.52;106671;1276;25389;-84
2023/10/18 02:42:37;;;;;;;10.40;5.20;;;;;;;-0.17;83.59;95927.39;106666;1276;22657;-83
2023/10/18 02:45:13;;;;;;;8.00;3.60;;;;;;;-0.09;83.33;95926.74;107038;1276;22560;-83
2023/10/18 02:47:42;;;;;;;7.30;3.00;;;;;;;-0.12;83.62;95928.91;106826;1276;25215;-84
2023/10/18 02:50:14;;;;;;;10.90;4.90;;;;;;;-0.22;82.37;95930.19;106765;1276;25303;-83
2023/10/18 02:52:46;;;;;;;14.50;6.30;;;;;;;-0.27;81.83;95933.34;106699;1276;25494;-84
2023/10/18 02:55:18;;;;;;;14.60;6.30;;;;;;;-0.25;82.17;95933.04;106752;1276;25327;-83
2023/10/18 02:57:48;;;;;;;9.70;5.10;;;;;;;-0.13;82.66;95931.45;106741;1276;25387;-83
2023/10/18 03:00:17;;;;;;;7.90;4.20;;;;;;;-0.06;82.38;95932.69;106877;1266;24261;-84
2023/10/18 03:02:45;;;;;;;7.90;3.90;;;;;;;-0.05;82.49;95931.52;106783;1276;24377;-83
2023/10/18 03:05:18;;;;;;;12.10;4.60;;;;;;;-0.07;82.22;95927.16;106656;1275;24330;-83
2023/10/18 03:07:46;;;;;;;6.60;3.90;;;;;;;-0.14;81.59;95925.73;106784;1276;25343;-83
2023/10/18 03:10:36;;;;;;;8.10;3.40;;;;;;;-0.19;82.18;95922.65;107002;1276;25275;-84
2023/10/18 03:13:03;;;;;;;5.60;3.30;;;;;;;-0.21;82.97;95922.96;106802;1276;23917;-83
2023/10/18 03:15:31;;;;;;;5.60;3.50;;;;;;;-0.19;83.53;95922.48;106883;1276;25233;-83
2023/10/18 03:18:00;;;;;;;4.90;3.30;;;;;;;-0.19;83.39;95926.45;106692;1276;22544;-83
2023/10/18 03:20:30;;;;;;;26.00;9.10;;;;;;;-0.33;82.70;95920.71;106670;1276;22520;-84
2023/10/18 03:23:02;;;;;;;35.60;12.20;;;;;;;-0.34;83.16;95920.51;106790;1276;25468;-83
2023/10/18 03:25:31;;;;;;;28.40;10.40;;;;;;;-0.34;84.12;95920.85;106663;1275;25224;-83
2023/10/18 03:28:12;;;;;;;30.10;11.50;;;;;;;-0.27;83.88;95919.00;106706;1276;24261;-83
2023/10/18 03:30:50;;;;;;;35.50;12.80;;;;;;;-0.24;83.14;95916.28;106721;1276;24381;-83
2023/10/18 03:33:19;;;;;;;36.10;14.50;;;;;;;-0.26;83.95;95907.77;106718;1276;25535;-83
2023/10/18 03:36:06;;;;;;;31.50;13.90;;;;;;;-0.23;84.11;95904.94;106715;1276;22537;-83
2023/10/18 03:38:54;;;;;;;26.80;10.60;;;;;;;-0.23;83.46;95903.89;106644;1276;22540;-83
2023/10/18 03:41:25;;;;;;;18.60;9.40;;;;;;;-0.20;83.84;95892.55;106661;1276;24298;-83
2023/10/18 03:44:03;;;;;;;15.50;7.40;;;;;;;-0.19;84.12;95894.82;106752;1276;22642;-83
2023/10/18 03:46:38;;;;;;;23.20;8.10;;;;;;;-0.17;84.33;95890.89;106662;1276;25405;-83
2023/10/18 03:49:10;;;;;;;16.70;7.00;;;;;;;-0.18;84.13;95890.02;107037;1276;25334;-83
2023/10/18 03:51:40;;;;;;;17.60;8.60;;;;;;;-0.19;83.75;95896.39;106726;1276;24199;-83
2023/10/18 03:54:13;;;;;;;16.10;7.50;;;;;;;-0.25;83.71;95895.70;106694;1276;24350;-83
2023/10/18 03:56:43;;;;;;;15.90;7.60;;;;;;;-0.25;84.65;95894.66;106584;1276;22762;-83
2023/10/18 03:59:21;;;;;;;21.30;9.00;;;;;;;-0.27;84.39;95888.71;106674;1276;25423;-83
2023/10/18 04:04:44;;;;;;;14.00;7.70;;;;;;;-0.30;84.20;95888.83;107073;1276;22622;-83
2023/10/18 04:07:16;;;;;;;17.50;8.90;;;;;;;-0.28;84.91;95894.74;106694;1276;25502;-84
2023/10/18 04:09:47;;;;;;;30.40;15.40;;;;;;;-0.22;84.60;95895.95;106668;1276;23898;-83
2023/10/18 04:12:19;;;;;;;29.50;13.60;;;;;;;-0.20;83.83;95892.88;106706;1276;24258;-84
2023/10/18 04:15:00;;;;;;;24.20;12.50;;;;;;;-0.19;84.15;95888.27;106567;1276;22536;-83
2023/10/18 04:17:36;;;;;;;15.50;6.80;;;;;;;-0.19;84.16;95884.27;106673;1276;24197;-83
2023/10/18 04:20:22;;;;;;;33.00;18.00;;;;;;;-0.22;84.34;95881.44;106666;1276;22653;-83
2023/10/18 04:22:51;;;;;;;27.40;14.70;;;;;;;-0.21;84.21;95885.44;106884;1276;23922;-83
2023/10/18 04:25:32;;;;;;;25.10;13.40;;;;;;;-0.17;83.90;95890.02;107005;1276;25452;-84
2023/10/18 04:28:00;;;;;;;23.50;12.10;;;;;;;-0.21;83.55;95882.85;106636;1276;23985;-83
2023/10/18 04:30:32;;;;;;;47.90;24.40;;;;;;;-0.23;83.74;95884.52;106696;1276;22643;-84
2023/10/18 04:33:00;;;;;;;44.70;21.00;;;;;;;-0.19;83.93;95884.11;106825;1276;22799;-84
2023/10/18 04:35:32;;;;;;;94.30;42.70;;;;;;;-0.11;84.01;95886.23;106699;1276;22652;-84
2023/10/18 04:38:04;;;;;;;49.60;25.50;;;;;;;-0.02;83.67;95881.11;106681;1276;22530;-83
2023/10/18 04:40:34;;;;;;;166.00;70.30;;;;;;;0.02;82.56;95884.16;106697;1276;25239;-84
2023/10/18 04:43:06;;;;;;;77.10;37.60;;;;;;;0.05;82.58;95885.60;106626;1276;23701;-84
2023/10/18 04:45:35;;;;;;;61.80;28.70;;;;;;;-0.02;82.73;95883.01;106704;1276;24219;-83
2023/10/18 04:48:06;;;;;;;41.50;20.90;;;;;;;-0.20;81.78;95889.26;106677;1276;22543;-83
2023/10/18 04:50:38;;;;;;;49.00;26.50;;;;;;;-0.33;82.75;95894.10;106675;1276;22779;-84
2023/10/18 04:53:14;;;;;;;42.30;19.70;;;;;;;-0.33;83.32;95899.98;106723;1276;22530;-83
2023/10/18 04:55:42;;;;;;;39.00;18.60;;;;;;;-0.30;83.74;95900.91;106654;1276;22521;-84
2023/10/18 04:58:11;;;;;;;36.70;18.30;;;;;;;-0.38;82.74;95902.08;106636;1276;22960;-83
2023/10/18 05:00:56;;;;;;;42.50;19.10;;;;;;;-0.50;82.79;95904.69;106899;1276;22917;-84
2023/10/18 05:03:30;;;;;;;16.80;7.70;;;;;;;-0.55;83.69;95914.02;106726;1276;24377;-83
2023/10/18 05:05:59;;;;;;;9.20;4.70;;;;;;;-0.51;83.89;95910.01;107017;1276;24212;-84
2023/10/18 05:08:30;;;;;;;4.20;2.40;;;;;;;-0.47;83.81;95909.41;106834;1276;24203;-83
2023/10/18 05:13:45;;;;;;;19.00;9.40;;;;;;;-0.39;84.75;95911.20;107115;1276;24234;-84
2023/10/18 05:16:13;;;;;;;6.00;3.80;;;;;;;-0.37;84.24;95910.58;107055;1276;23896;-84
2023/10/18 05:18:44;;;;;;;16.60;8.90;;;;;;;-0.31;84.41;95911.45;107063;1276;25479;-84
2023/10/18 05:21:20;;;;;;;26.50;13.80;;;;;;;-0.27;84.20;95914.33;106991;1276;22604;-83
2023/10/18 05:23:52;;;;;;;26.80;12.40;;;;;;;-0.26;83.95;95916.92;106998;1276;22571;-83
2023/10/18 05:26:20;;;;;;;24.00;11.60;;;;;;;-0.34;83.26;95924.48;106728;1276;25395;-83
2023/10/18 05:29:00;;;;;;;29.90;14.00;;;;;;;-0.42;83.93;95925.48;106708;1276;25329;-85
2023/10/18 05:31:44;;;;;;;30.40;15.20;;;;;;;-0.45;84.52;95926.40;106707;1276;24447;-83
2023/10/18 05:39:19;;;;;;;25.00;14.30;;;;;;;-0.35;85.61;95932.56;106653;1276;24389;-82
2023/10/18 05:42:00;;;;;;;23.80;15.10;;;;;;;-0.28;85.82;95931.05;107037;1276;25507;-80
2023/10/18 05:44:28;;;;;;;26.30;14.50;;;;;;;-0.20;85.42;95930.94;106988;1276;25303;-81
2023/10/18 05:46:57;;;;;;;19.60;12.80;;;;;;;-0.16;85.56;95926.89;106603;1276;22538;-82
2023/10/18 05:49:25;;;;;;;109.90;52.70;;;;;;;-0.08;86.24;95930.25;106756;1276;24249;-81
2023/10/18 05:54:43;;;;;;;89.80;46.50;;;;;;;0.16;85.81;95934.18;106763;1276;22530;-80
2023/10/18 05:57:16;;;;;;;25.90;15.40;;;;;;;0.27;85.70;95932.89;106833;1276;22551;-83
2023/10/18 05:59:46;;;;;;;22.50;12.40;;;;;;;0.33;85.40;95928.38;106674;1276;22530;-81
2023/10/18 06:02:22;;;;;;;21.00;12.90;;;;;;;0.43;85.82;95933.16;106714;1276;25333;-83
2023/10/18 06:04:55;;;;;;;27.70;15.30;;;;;;;0.60;86.09;95932.70;106682;1276;22576;-83
2023/10/18 06:07:24;;;;;;;27.80;15.70;;;;;;;0.77;85.83;95938.68;106813;1276;24367;-83
2023/10/18 06:12:27;;;;;;;22.50;13.10;;;;;;;0.98;84.70;95935.20;106630;1276;22530;-84
2023/10/18 06:14:57;;;;;;;23.40;16.00;;;;;;;1.13;84.98;95930.52;106658;1276;24196;-84
2023/10/18 06:17:26;;;;;;;17.90;11.70;;;;;;;1.34;84.76;95928.73;107089;1276;25223;-85
2023/10/18 06:19:56;;;;;;;17.70;10.70;;;;;;;1.56;84.84;95930.25;106847;1254;24330;-83
2023/10/18 06:22:28;;;;;;;16.00;10.30;;;;;;;1.80;84.13;95932.49;106851;1272;25268;-82
2023/10/18 06:25:03;;;;;;;11.40;6.10;;;;;;;1.89;83.04;95923.83;106706;1276;25224;-83
2023/10/18 06:27:41;;;;;;;18.30;10.30;;;;;;;1.86;83.09;95914.93;106689;1276;26559;-84
2023/10/18 06:30:17;;;;;;;13.60;8.50;;;;;;;2.00;84.39;95911.90;106628;1276;22950;-81
2023/10/18 06:32:46;;;;;;;12.70;8.50;;;;;;;2.21;83.54;95910.39;106858;1272;22667;-84
2023/10/18 06:35:17;;;;;;;14.70;8.40;;;;;;;2.34;83.44;95910.47;106662;1276;22828;-84
2023/10/18 06:37:46;;;;;;;13.90;8.50;;;;;;;2.53;83.29;95911.82;106710;1276;22522;-84
2023/10/18 06:43:03;;;;;;;21.20;10.80;;;;;;;2.78;81.92;95910.88;106772;1276;22535;-82
2023/10/18 06:45:33;;;;;;;18.80;10.50;;;;;;;2.87;82.05;95913.80;106930;1276;22530;-80
2023/10/18 06:48:03;;;;;;;19.60;9.70;;;;;;;3.01;81.63;95912.11;106887;1276;22593;-82
2023/10/18 06:50:32;;;;;;;12.50;6.90;;;;;;;3.11;81.12;95922.52;106669;1263;22566;-80
2023/10/18 06:53:05;;;;;;;10.00;6.50;;;;;;;3.18;80.88;95927.66;106741;1276;25220;-82
2023/10/18 06:55:55;;;;;;;;;;;;;;;3.24;80.93;95937.84;106665;1276;23005;-82
2023/10/18 07:01:00;;;;;;;10.80;6.50;;;;;;;3.46;80.99;95937.31;106825;1263;24381;-86
2023/10/18 07:03:29;;;;;;;11.80;8.70;;;;;;;3.56;81.18;95932.04;106837;1276;22553;-83
2023/10/18 07:05:57;;;;;;;12.20;7.90;;;;;;;3.66;81.27;95928.19;106695;1276;22520;-85
2023/10/18 07:08:32;;;;;;;12.90;9.10;;;;;;;3.82;81.44;95916.38;106671;1276;22645;-85
2023/10/18 07:11:01;;;;;;;12.40;7.10;;;;;;;4.01;81.45;95903.20;106900;1276;24743;-85
2023/10/18 07:13:48;;;;;;;13.10;7.90;;;;;;;4.23;80.82;95892.30;107049;1276;22634;-87
2023/10/18 07:21:48;;;;;;;8.10;4.40;;;;;;;4.74;79.01;95892.64;106942;1276;25498;-86
2023/10/18 07:24:20;;;;;;;6.70;4.50;;;;;;;4.88;79.17;95892.05;106899;1276;22530;-84
2023/10/18 07:26:49;;;;;;;5.90;3.90;;;;;;;5.07;78.90;95890.80;106663;1276;22760;-82
2023/10/18 07:29:20;;;;;;;5.70;3.80;;;;;;;5.21;78.11;95883.23;106700;1261;22549;-83
2023/10/18 07:31:49;;;;;;;7.40;4.50;;;;;;;5.36;77.54;95876.70;106897;1276;22548;-82
2023/10/18 07:34:31;;;;;;;6.20;4.40;;;;;;;5.39;76.72;95878.11;107018;1276;24339;-84
2023/10/18 07:37:16;;;;;;;7.90;4.20;;;;;;;5.47;77.33;95874.33;106899;1276;24192;-83
2023/10/18 07:39:49;;;;;;;5.10;3.00;;;;;;;5.72;77.84;95874.63;107080;1276;26502;-82
2023/10/18 07:42:19;;;;;;;5.90;4.30;;;;;;;5.96;77.71;95878.23;106706;1276;22647;-86
2023/10/18 07:44:52;;;;;;;6.30;4.00;;;;;;;6.15;76.86;95877.10;106756;1276;22542;-84
2023/10/18 07:47:25;;;;;;;8.10;3.80;;;;;;;6.38;76.70;95876.11;106768;1260;24473;-83
2023/10/18 07:49:57;;;;;;;7.70;3.70;;;;;;;6.62;76.81;95878.08;106730;1276;24262;-84
2023/10/18 07:52:26;;;;;;;6.80;3.80;;;;;;;6.87;76.49;95874.41;106835;1276;24111;-84
2023/10/18 07:54:55;;;;;;;10.20;6.50;;;;;;;7.12;76.16;95872.84;106841;1276;24342;-85
2023/10/18 07:57:33;;;;;;;5.60;4.30;;;;;;;7.26;74.41;95871.42;106694;1276;22544;-83
2023/10/18 08:00:21;;;;;;;6.80;5.10;;;;;;;7.36;74.86;95868.43;106733;1276;22532;-81
2023/10/18 08:02:50;;;;;;;7.00;4.30;;;;;;;7.57;74.83;95860.52;106728;1276;22542;-80
2023/10/18 08:05:22;;;;;;;6.90;5.00;;;;;;;7.80;74.45;95862.71;106716;1276;22817;-81
2023/10/18 08:07:54;;;;;;;13.50;7.90;;;;;;;7.99;74.47;95857.39;106707;1276;22539;-80
2023/10/18 08:10:24;;;;;;;17.40;9.40;;;;;;;8.23;74.56;95855.86;106750;1276;25224;-82
2023/10/18 08:13:07;;;;;;;20.60;9.80;;;;;;;8.49;74.09;95854.00;106746;1276;22642;-80
2023/10/18 08:15:37;;;;;;;19.70;8.80;;;;;;;8.69;73.44;95851.06;106733;1276;22533;-81
2023/10/18 08:18:15;;;;;;;23.10;8.40;;;;;;;8.87;72.97;95847.24;107038;1276;24260;-84
2023/10/18 08:26:12;;;;;;;7.70;4.80;;;;;;;9.36;70.54;95838.02;106967;1276;22642;-80
2023/10/18 08:28:40;;;;;;;10.40;4.90;;;;;;;9.52;69.91;95837.53;106963;1276;25380;-81
2023/10/18 08:34:10;;;;;;;4.30;2.70;;;;;;;9.85;67.48;95838.55;106795;1276;22631;-84
2023/10/18 08:36:38;;;;;;;4.30;2.40;;;;;;;10.01;66.58;95835.72;106683;1276;25319;-82
2023/10/18 08:39:08;;;;;;;5.30;2.30;;;;;;;10.14;64.91;95835.55;106766;1276;22763;-80
2023/10/18 08:41:49;;;;;;;4.10;2.20;;;;;;;10.26;64.53;95832.61;106911;1276;24270;-83
2023/10/18 08:44:25;;;;;;;4.80;3.00;;;;;;;10.41;62.83;95833.65;106997;1276;24206;-84
2023/10/18 08:47:14;;;;;;;6.90;3.00;;;;;;;10.49;61.86;95828.78;106974;1276;25328;-84
2023/10/18 08:49:52;;;;;;;4.90;3.90;;;;;;;10.69;59.71;95824.44;106771;1276;22520;-82
2023/10/18 08:52:23;;;;;;;4.00;2.70;;;;;;;10.89;60.25;95825.00;106680;1276;22664;-82
2023/10/18 08:54:55;;;;;;;5.30;4.60;;;;;;;11.01;55.40;95823.94;106805;1276;25278;-83
2023/10/18 08:57:36;;;;;;;3.50;2.50;;;;;;;11.08;53.73;95824.17;106684;1264;22622;-80
2023/10/18 09:00:55;;;;;;;5.00;3.80;;;;;;;11.25;53.76;95819.63;106730;1276;25574;-83
2023/10/18 09:02:58;;;;;;;5.30;3.70;;;;;;;11.47;53.69;95813.61;106695;1276;22534;-82
2023/10/18 09:05:28;;;;;;;5.80;3.40;;;;;;;11.65;53.22;95812.39;106708;1276;24759;-82
2023/10/18 09:08:05;;;;;;;5.80;2.80;;;;;;;11.82;53.83;95812.41;106647;1276;22516;-79
2023/10/18 09:18:30;;;;;;;8.20;4.50;;;;;;;12.29;51.55;95799.45;106621;1277;25198;-82
2023/10/18 09:23:40;;;;;;;3.30;2.40;;;;;;;12.55;52.92;95799.07;106545;1263;22530;-82
2023/10/18 09:26:12;;;;;;;4.90;3.10;;;;;;;12.66;52.45;95800.56;106817;1277;22665;-83
2023/10/18 09:28:41;;;;;;;5.00;2.60;;;;;;;12.71;49.40;95797.45;106634;1277;23113;-82
2023/10/18 09:31:18;;;;;;;4.70;2.80;;;;;;;12.69;49.40;95794.48;106761;1277;25286;-81
2023/10/18 09:33:51;;;;;;;6.30;3.50;;;;;;;12.76;48.97;95790.27;106459;1277;23910;-81
2023/10/18 09:36:20;;;;;;;7.10;3.30;;;;;;;12.88;49.79;95787.70;106866;1277;22650;-81
2023/10/18 09:38:51;;;;;;;3.80;2.30;;;;;;;13.01;49.17;95780.48;106782;1277;24251;-80
2023/10/18 09:41:21;;;;;;;5.50;2.70;;;;;;;13.07;48.68;95780.15;106717;1277;22576;-81
2023/10/18 09:43:49;;;;;;;8.40;3.00;;;;;;;13.21;48.56;95771.33;106802;1277;22618;-81
2023/10/18 09:46:18;;;;;;;4.70;2.70;;;;;;;13.38;48.97;95769.30;106754;1277;22524;-82
2023/10/18 09:48:46;;;;;;;8.90;3.50;;;;;;;13.48;48.71;95764.98;106751;1277;24475;-82
2023/10/18 09:51:20;;;;;;;5.20;3.10;;;;;;;13.54;47.21;95766.08;106610;1277;22519;-83
2023/10/18 09:53:55;;;;;;;3.70;2.90;;;;;;;13.50;46.26;95764.73;106656;1277;22522;-79
2023/10/18 09:56:35;;;;;;;5.60;3.00;;;;;;;13.50;45.50;95760.52;106749;1277;24353;-81
2023/10/18 09:59:08;;;;;;;8.80;4.50;;;;;;;13.50;44.37;95755.94;106605;1277;25445;-81
2023/10/18 10:04:14;;;;;;;5.00;2.90;;;;;;;13.50;44.38;95750.59;106632;1277;24202;-82
2023/10/18 10:06:47;;;;;;;7.30;3.00;;;;;;;13.68;46.63;95754.70;106596;1277;22541;-84
2023/10/18 10:09:15;;;;;;;4.50;3.00;;;;;;;13.91;46.04;95755.11;106663;1277;24234;-82
2023/10/18 10:11:45;;;;;;;6.50;2.90;;;;;;;14.03;44.45;95750.00;106537;1277;26647;-82
2023/10/18 10:14:16;;;;;;;8.90;2.70;;;;;;;14.13;44.13;95751.48;106584;1277;24056;-81
2023/10/18 10:16:56;;;;;;;4.30;3.10;;;;;;;14.25;43.00;95747.91;106657;1277;25365;-82
2023/10/18 10:19:31;;;;;;;5.90;2.90;;;;;;;14.65;43.41;95741.36;106691;1277;23899;-82
2023/10/18 10:22:05;;;;;;;6.50;3.40;;;;;;;15.22;43.66;95737.70;106652;1262;25351;-83
2023/10/18 10:24:42;;;;;;;5.20;2.90;;;;;;;15.70;43.28;95734.98;106613;1277;22530;-86
2023/10/18 10:32:58;;;;;;;3.40;2.60;;;;;;;17.11;38.44;95717.79;106586;1266;22728;-83
2023/10/18 10:35:32;;;;;;;5.40;2.80;;;;;;;17.40;37.29;95716.34;106450;1277;276310;-83
2023/10/18 10:38:01;;;;;;;4.10;3.00;;;;;;;17.59;37.57;95712.50;106715;1277;22551;-82
2023/10/18 10:43:01;;;;;;;4.40;2.90;;;;;;;18.28;36.27;95708.64;106356;1263;24208;-80
2023/10/18 10:51:16;;;;;;;4.30;2.60;;;;;;;19.26;35.97;95697.46;106607;1277;25361;-82
2023/10/18 10:53:57;;;;;;;4.50;2.70;;;;;;;19.69;34.52;95691.36;106744;1277;25345;-84
2023/10/18 10:56:30;;;;;;;3.60;2.70;;;;;;;20.00;34.12;95690.05;106640;1277;22526;-81
2023/10/18 11:01:39;;;;;;;4.00;2.80;;;;;;;20.50;32.58;95686.04;106605;1277;22524;-83
2023/10/18 11:04:15;;;;;;;10.20;3.70;;;;;;;20.78;33.36;95684.66;106651;1277;25400;-83
2023/10/18 11:06:43;;;;;;;6.90;4.40;;;;;;;20.88;31.64;95680.17;106587;1277;25482;-82
2023/10/18 11:09:18;;;;;;;6.00;3.80;;;;;;;20.90;32.08;95678.61;106626;1277;22529;-84
2023/10/18 11:11:46;;;;;;;4.80;3.50;;;;;;;21.03;31.29;95679.45;106623;1277;25268;-85
2023/10/18 11:14:22;;;;;;;7.30;3.70;;;;;;;21.03;30.84;95673.00;106620;1277;24336;-81
2023/10/18 11:16:57;;;;;;;4.70;3.00;;;;;;;21.12;30.63;95676.42;106541;1277;24356;-84
2023/10/18 11:19:29;;;;;;;4.70;2.80;;;;;;;20.98;30.75;95674.55;106681;1277;25381;-84
2023/10/18 11:22:19;;;;;;;5.50;3.60;;;;;;;21.09;31.34;95670.19;106640;1269;24356;-84
2023/10/18 11:24:50;;;;;;;6.70;2.90;;;;;;;21.28;30.78;95669.38;106628;1277;22611;-85
2023/10/18 11:27:25;;;;;;;9.10;3.90;;;;;;;21.63;30.40;95666.63;106615;1277;22536;-82
2023/10/18 11:30:00;;;;;;;4.70;3.40;;;;;;;21.94;29.80;95666.85;106640;1277;25472;-85
2023/10/18 11:32:29;;;;;;;4.20;2.90;;;;;;;22.03;29.67;95665.54;106603;1277;23931;-84
2023/10/18 11:35:12;;;;;;;4.00;3.00;;;;;;;22.02;29.25;95661.34;106633;1277;22780;-85
2023/10/18 11:37:45;;;;;;;5.70;3.10;;;;;;;22.22;28.70;95651.27;106706;1277;24213;-85
2023/10/18 11:40:21;;;;;;;5.80;3.80;;;;;;;22.37;28.94;95651.95;106633;1277;22679;-82
2023/10/18 11:42:53;;;;;;;8.00;4.90;;;;;;;22.47;28.06;95647.36;106537;1277;22649;-82
2023/10/18 11:45:27;;;;;;;9.80;6.40;;;;;;;22.50;28.15;95650.59;106641;1277;25391;-86
2023/10/18 11:47:59;;;;;;;20.80;11.10;;;;;;;22.40;27.76;95647.30;106575;1277;24238;-84
2023/10/18 11:50:47;;;;;;;16.40;9.30;;;;;;;22.47;28.16;95645.45;106625;1277;24238;-86
2023/10/18 11:53:23;;;;;;;25.60;14.40;;;;;;;22.72;27.88;95643.95;106526;1277;24212;-85
2023/10/18 11:55:52;;;;;;;57.40;32.70;;;;;;;22.97;27.63;95642.67;106567;1277;24263;-83
2023/10/18 11:58:20;;;;;;;22.60;13.90;;;;;;;23.13;27.09;95644.33;106583;1277;22526;-83
2023/10/18 12:00:55;;;;;;;30.90;20.30;;;;;;;23.29;26.90;95638.89;106648;1277;22519;-86
2023/10/18 12:03:27;;;;;;;10.70;6.60;;;;;;;23.49;26.84;95640.05;106563;1277;22528;-83
2023/10/18 12:05:57;;;;;;;25.80;15.90;;;;;;;23.62;26.51;95637.59;106671;1277;22545;-84
2023/10/18 12:08:33;;;;;;;55.60;32.10;;;;;;;23.72;26.31;95632.16;106646;1277;25278;-86
2023/10/18 12:11:04;;;;;;;42.10;23.00;;;;;;;23.84;26.09;95633.69;106586;1273;22659;-82
2023/10/18 12:13:33;;;;;;;16.60;7.00;;;;;;;23.76;25.95;95627.42;106571;1277;25281;-84
2023/10/18 12:16:02;;;;;;;25.00;15.40;;;;;;;23.70;25.31;95628.03;106672;1277;24340;-81
2023/10/18 12:18:32;;;;;;;27.60;13.90;;;;;;;23.75;25.85;95625.00;106641;1277;24321;-86
2023/10/18 12:21:00;;;;;;;10.60;5.80;;;;;;;23.79;25.48;95621.81;106587;1277;23886;-85
2023/10/18 12:23:28;;;;;;;13.50;7.90;;;;;;;23.47;25.56;95619.89;106548;1277;23009;-82
2023/10/18 12:26:05;;;;;;;14.20;8.00;;;;;;;23.44;25.70;95618.13;106570;1277;25409;-85
2023/10/18 12:28:37;;;;;;;7.00;4.50;;;;;;;23.36;26.29;95615.30;106616;1277;22562;-82
2023/10/18 12:31:16;;;;;;;4.30;3.10;;;;;;;23.68;26.09;95615.95;106559;1277;22659;-85
2023/10/18 12:33:49;;;;;;;6.50;3.60;;;;;;;24.01;25.26;95609.16;106755;1277;24620;-84
2023/10/18 12:36:32;;;;;;;44.50;26.30;;;;;;;24.17;25.21;95605.67;106671;1277;22608;-85
2023/10/18 12:39:00;;;;;;;;;;;;;;;24.54;25.33;95600.78;106606;1277;22517;-86
2023/10/18 12:41:31;;;;;;;22.80;14.40;;;;;;;24.32;25.00;95601.52;106627;1277;25284;-83
2023/10/18 12:44:00;;;;;;;18.20;11.70;;;;;;;24.42;25.05;95603.30;106626;1277;22557;-81
2023/10/18 12:46:29;;;;;;;9.90;5.40;;;;;;;24.52;24.91;95601.30;106634;1277;25282;-82
2023/10/18 12:48:58;;;;;;;10.40;5.70;;;;;;;24.62;24.51;95599.28;106686;1277;23905;-84
2023/10/18 12:51:40;;;;;;;7.70;5.30;;;;;;;24.59;24.79;95602.23;106585;1277;22536;-82